createdAt,value
2023-01-12T00:00:01.484Z,2.6
2023-01-12T00:05:00.873Z,2.9
2023-01-12T00:10:00.939Z,2.6
2023-01-12T00:15:01.230Z,2.9
2023-01-12T00:20:00.946Z,3.3
2023-01-12T00:25:00.960Z,3.2
2023-01-12T00:30:01.274Z,3.2
2023-01-12T00:40:02.757Z,3.1
2023-01-12T00:45:01.624Z,2.5
2023-01-12T00:50:00.878Z,2.6
2023-01-12T00:55:00.901Z,2.4
2023-01-12T01:00:01.537Z,2.3
2023-01-12T01:05:00.989Z,1.8
2023-01-12T01:10:00.876Z,2.2
2023-01-12T01:15:01.556Z,1.9
2023-01-12T01:20:00.983Z,1.6
2023-01-12T01:30:02.310Z,1.7
2023-01-12T01:35:00.928Z,1.4
2023-01-12T01:40:00.915Z,1.2
2023-01-12T01:45:03.672Z,1.6
2023-01-12T02:00:05.015Z,1.4
2023-01-12T02:05:00.969Z,1.2
2023-01-12T02:10:00.890Z,0.8
2023-01-12T02:15:01.614Z,1.0
2023-01-12T02:20:00.935Z,0.9
2023-01-12T02:25:00.894Z,1.7
2023-01-12T02:30:13.389Z,1.8
2023-01-12T02:35:10.941Z,1.6
2023-01-12T02:40:00.912Z,1.8
2023-01-12T02:45:08.329Z,2.1
2023-01-12T02:50:00.901Z,1.5
2023-01-12T02:55:01.124Z,1.8
2023-01-12T03:00:02.325Z,2.0
2023-01-12T03:05:00.904Z,1.9
2023-01-12T03:10:00.905Z,1.6
2023-01-12T03:15:03.119Z,1.8
2023-01-12T03:25:00.924Z,2.2
2023-01-12T03:30:05.114Z,2.2
2023-01-12T03:35:00.963Z,2.4
2023-01-12T03:40:00.931Z,2.5
2023-01-12T03:45:16.248Z,2.3
2023-01-12T03:50:00.927Z,2.0
2023-01-12T04:00:01.904Z,1.8
2023-01-12T04:05:00.984Z,1.7
2023-01-12T04:10:00.926Z,2.0
2023-01-12T04:15:01.644Z,2.0
2023-01-12T04:20:00.954Z,1.9
2023-01-12T04:25:00.960Z,2.0
2023-01-12T04:30:01.578Z,2.1
2023-01-12T04:35:03.462Z,2.0
2023-01-12T04:40:00.935Z,1.8
2023-01-12T04:45:01.402Z,1.9
2023-01-12T04:50:00.939Z,1.8
2023-01-12T04:55:03.108Z,1.7
2023-01-12T05:00:02.294Z,2.1
2023-01-12T05:05:00.941Z,2.5
2023-01-12T05:10:00.943Z,2.6
2023-01-12T05:15:01.571Z,2.6
2023-01-12T05:20:01.253Z,2.8
2023-01-12T05:25:00.945Z,2.6
2023-01-12T05:30:01.358Z,2.5
2023-01-12T05:35:01.007Z,2.3
2023-01-12T05:45:01.612Z,2.1
2023-01-12T05:50:00.948Z,2.2
2023-01-12T05:55:00.992Z,2.0
2023-01-12T06:00:02.430Z,2.0
2023-01-12T06:10:01.150Z,1.9
2023-01-12T06:15:01.509Z,1.7
2023-01-12T06:20:00.984Z,1.9
2023-01-12T06:25:00.954Z,2.0
2023-01-12T06:30:01.577Z,2.0
2023-01-12T06:35:06.961Z,2.2
2023-01-12T06:40:00.964Z,2.4
2023-01-12T06:45:01.417Z,2.3
2023-01-12T06:50:00.977Z,3.1
2023-01-12T07:00:03.402Z,2.8
2023-01-12T07:05:01.000Z,2.4
2023-01-12T07:15:02.280Z,2.1
2023-01-12T07:25:01.464Z,2.3
2023-01-12T07:30:01.388Z,2.3
2023-01-12T07:35:00.983Z,2.6
2023-01-12T07:40:00.997Z,1.9
2023-01-12T07:45:01.538Z,1.8
2023-01-12T07:50:01.001Z,1.4
2023-01-12T07:55:00.981Z,1.3
2023-01-12T08:00:02.786Z,0.9
2023-01-12T08:05:01.084Z,1.1
2023-01-12T08:10:01.715Z,1.2
2023-01-12T08:15:01.578Z,1.6
2023-01-12T08:20:04.458Z,1.8
2023-01-12T08:25:00.990Z,1.6
2023-01-12T08:30:01.856Z,1.4
2023-01-12T08:35:01.471Z,1.2
2023-01-12T08:45:01.817Z,1.3
2023-01-12T08:50:00.997Z,1.6
2023-01-12T08:55:01.009Z,2.0
2023-01-12T09:00:01.698Z,2.0
2023-01-12T09:05:01.037Z,1.6
2023-01-12T09:10:01.104Z,1.0
2023-01-12T09:15:01.572Z,0.8
2023-01-12T09:20:01.000Z,0.5
2023-01-12T09:25:01.039Z,0.4
2023-01-12T09:30:02.176Z,0.4
2023-01-12T09:35:01.015Z,0.6
2023-01-12T09:40:01.014Z,0.9
2023-01-12T09:45:04.076Z,0.8
2023-01-12T10:00:12.718Z,0.8
2023-01-12T10:05:01.050Z,0.4
2023-01-12T10:15:09.783Z,0.4
2023-01-12T10:40:02.911Z,0.8
2023-01-12T10:45:11.704Z,0.4
2023-01-12T10:50:01.392Z,0.3
2023-01-12T11:00:02.108Z,0.2
2023-01-12T11:11:01.147Z,0.4
2023-01-12T11:21:01.080Z,0.3
2023-01-12T11:31:01.146Z,0.4
2023-01-12T12:01:01.123Z,0.2
2023-01-12T12:11:01.060Z,0.5
2023-01-12T12:16:01.099Z,0.7
2023-01-12T12:26:01.158Z,0.5
2023-01-12T12:31:01.135Z,1.1
2023-01-12T12:36:01.128Z,0.9
2023-01-12T12:41:01.068Z,0.7
2023-01-12T13:42:01.105Z,0.3
2023-01-12T13:52:01.086Z,0.4
2023-01-12T15:13:01.146Z,0.3
2023-01-12T15:28:01.155Z,0.7
2023-01-12T15:38:01.147Z,0.4
2023-01-12T15:53:01.349Z,0.2
2023-01-12T16:03:01.128Z,0.5
2023-01-12T16:18:06.166Z,0.3
2023-01-12T16:28:01.187Z,0.1
2023-01-12T16:38:01.099Z,0.4
2023-01-12T16:43:01.081Z,0.6
2023-01-12T16:59:01.565Z,0.6
2023-01-12T17:04:01.058Z,0.5
2023-01-12T17:09:01.082Z,0.3
2023-01-12T17:14:01.154Z,0.6
2023-01-12T17:19:01.086Z,0.5
2023-01-12T17:24:01.070Z,0.9
2023-01-12T17:29:01.060Z,0.7
2023-01-12T17:34:01.072Z,0.8
2023-01-12T17:39:01.100Z,0.5
2023-01-12T17:44:01.093Z,0.6
2023-01-12T17:49:01.084Z,0.2
2023-01-12T17:54:01.205Z,0.3
2023-01-12T17:59:01.139Z,0.2
2023-01-12T18:09:01.114Z,0.1
2023-01-12T18:29:01.136Z,0.4
2023-01-12T18:39:01.852Z,0.6
2023-01-12T18:44:01.054Z,1.0
2023-01-12T18:59:01.099Z,1.0
2023-01-12T19:04:01.055Z,1.2
2023-01-12T19:09:01.489Z,0.8
2023-01-12T19:19:01.084Z,0.6
2023-01-12T19:29:01.073Z,0.2
2023-01-12T19:34:01.056Z,0.4
2023-01-12T19:44:06.131Z,0.2
2023-01-12T19:59:01.074Z,0.1
2023-01-12T20:14:01.536Z,0.1
2023-01-12T20:39:01.574Z,0.2
2023-01-12T20:54:01.073Z,0.2
2023-01-12T22:59:01.149Z,0.2
2023-01-12T23:14:01.101Z,0.2
